Time;durP1;ratioP1;P1;durP2;ratioP2;P2;SDS_P1;SDS_P2;PMS_P1;PMS_P2;Temp;Humidity;BMP_temperature;BMP_pressure;BME280_temperature;BME280_humidity;BME280_pressure;Samples;Min_cycle;Max_cycle;Signal;HPM_P1;HPM_P2
2023/04/13 00:02:03;;;;;;;4.50;1.80;;;6.80;99.90;;;;;;4964401;28;37409;-81
2023/04/13 00:04:30;;;;;;;7.67;2.40;;;6.80;99.90;;;;;;4957544;28;37858;-79
2023/04/13 00:06:57;;;;;;;7.73;2.60;;;6.90;99.90;;;;;;4945488;28;37852;-80
2023/04/13 00:09:24;;;;;;;6.60;2.17;;;6.90;99.90;;;;;;4971706;28;37323;-80
2023/04/13 00:11:51;;;;;;;5.53;1.53;;;6.80;99.90;;;;;;4948638;28;36274;-80
2023/04/13 00:14:18;;;;;;;3.83;1.90;;;6.80;99.90;;;;;;4940792;28;39763;-80
2023/04/13 00:16:46;;;;;;;3.73;1.83;;;6.90;99.90;;;;;;4952191;28;38037;-81
2023/04/13 00:19:12;;;;;;;6.23;2.10;;;6.90;99.90;;;;;;4955466;28;39134;-80
2023/04/13 00:21:40;;;;;;;6.70;2.43;;;6.90;99.90;;;;;;4973324;28;37262;-80
2023/04/13 00:24:07;;;;;;;6.00;3.10;;;6.90;99.90;;;;;;4944606;28;39315;-80
2023/04/13 00:26:33;;;;;;;6.33;2.83;;;6.90;99.90;;;;;;4964606;28;38044;-79
2023/04/13 00:28:59;;;;;;;5.53;3.20;;;6.90;99.90;;;;;;4948902;28;37232;-79
2023/04/13 00:31:25;;;;;;;7.00;3.37;;;6.90;99.90;;;;;;4962490;28;36556;-81
2023/04/13 00:33:51;;;;;;;7.13;3.33;;;6.90;99.90;;;;;;4953923;28;39174;-81
2023/04/13 00:36:17;;;;;;;5.03;2.50;;;7.00;99.90;;;;;;4953256;28;39214;-81
2023/04/13 00:38:43;;;;;;;6.80;2.57;;;7.00;99.90;;;;;;4946634;28;37309;-78
2023/04/13 00:41:12;;;;;;;4.13;2.50;;;7.00;99.90;;;;;;4933560;28;35773;-78
2023/04/13 00:43:39;;;;;;;5.50;2.50;;;7.00;99.90;;;;;;4935594;28;38694;-79
2023/04/13 00:46:05;;;;;;;7.17;1.93;;;7.00;99.90;;;;;;4934131;28;38673;-78
2023/04/13 00:48:33;;;;;;;4.70;1.30;;;7.10;99.90;;;;;;4934683;28;38039;-78
2023/04/13 00:51:01;;;;;;;5.70;1.23;;;7.00;99.90;;;;;;4936736;28;37030;-78
2023/04/13 00:53:28;;;;;;;9.30;1.33;;;6.90;99.90;;;;;;4932270;28;48830;-79
2023/04/13 00:55:55;;;;;;;5.33;0.90;;;6.90;99.90;;;;;;4933467;28;40384;-78
2023/04/13 00:58:22;;;;;;;6.80;1.10;;;6.80;99.90;;;;;;4933686;28;37941;-78
2023/04/13 01:03:26;;;;;;;4.03;1.23;;;6.80;99.90;;;;;;5091368;23;20095;-76
2023/04/13 01:06:10;;;;;;;7.60;1.50;;;6.90;99.90;;;;;;4931177;28;39616;-76
2023/04/13 01:09:00;;;;;;;3.63;0.90;;;6.80;99.90;;;;;;4940152;28;49056;-76
2023/04/13 01:11:40;;;;;;;8.43;1.30;;;6.80;99.90;;;;;;4929332;28;37411;-76
2023/04/13 01:14:16;;;;;;;8.30;1.20;;;6.80;99.90;;;;;;4916606;29;38919;-76
2023/04/13 01:16:47;;;;;;;4.87;1.40;;;6.70;99.90;;;;;;4935180;28;38386;-76
2023/04/13 01:19:45;;;;;;;5.00;1.40;;;6.80;99.90;;;;;;4904876;29;38334;-76
2023/04/13 01:22:13;;;;;;;8.00;1.27;;;6.70;99.90;;;;;;4899176;29;36300;-76
2023/04/13 01:25:10;;;;;;;9.53;1.73;;;6.70;99.90;;;;;;4914471;28;37492;-76
2023/04/13 01:27:50;;;;;;;5.47;1.23;;;6.70;99.90;;;;;;4924018;28;47214;-76
2023/04/13 01:30:23;;;;;;;12.03;1.60;;;6.70;99.90;;;;;;4939234;28;39442;-76
2023/04/13 01:32:51;;;;;;;6.80;1.05;;;6.60;99.90;;;;;;4917038;29;40762;-76
2023/04/13 01:35:21;;;;;;;10.17;0.83;;;6.60;99.90;;;;;;4943852;28;39828;-76
2023/04/13 01:37:49;;;;;;;5.87;1.20;;;6.60;99.90;;;;;;4931779;28;39485;-77
2023/04/13 01:40:15;;;;;;;11.57;1.20;;;6.60;99.90;;;;;;4917967;28;37148;-76
2023/04/13 01:42:42;;;;;;;8.87;1.10;;;6.60;99.90;;;;;;4939903;28;37273;-77
2023/04/13 01:45:26;;;;;;;9.47;1.03;;;6.50;99.90;;;;;;4930956;29;37844;-75
2023/04/13 01:48:20;;;;;;;6.40;0.93;;;6.40;99.90;;;;;;4941695;28;38656;-76
2023/04/13 01:50:53;;;;;;;5.97;1.47;;;6.40;99.90;;;;;;4907627;29;47103;-75
2023/04/13 01:53:27;;;;;;;4.97;1.00;;;6.40;99.90;;;;;;4912579;29;37436;-76
2023/04/13 01:55:54;;;;;;;7.97;1.10;;;6.40;99.90;;;;;;4916486;28;37547;-76
2023/04/13 01:58:26;;;;;;;10.10;1.57;;;6.40;99.90;;;;;;4934280;28;38611;-76
2023/04/13 02:00:55;;;;;;;6.00;0.82;;;6.40;99.90;;;;;;4933254;28;38241;-76
2023/04/13 02:03:21;;;;;;;5.03;1.10;;;6.40;99.90;;;;;;4926292;28;37934;-76
2023/04/13 02:05:49;;;;;;;6.50;0.70;;;6.40;99.90;;;;;;4894308;29;39152;-76
2023/04/13 02:08:17;;;;;;;6.30;1.10;;;6.50;99.90;;;;;;4904359;29;38433;-76
2023/04/13 02:10:44;;;;;;;4.60;1.47;;;6.60;99.90;;;;;;4911925;29;38360;-76
2023/04/13 02:13:10;;;;;;;12.00;1.10;;;6.60;99.90;;;;;;4906505;29;36636;-76
2023/04/13 02:15:37;;;;;;;6.93;1.10;;;6.60;99.90;;;;;;4892036;29;37991;-75
2023/04/13 02:18:04;;;;;;;10.57;1.03;;;6.60;99.90;;;;;;4898414;29;37605;-76
2023/04/13 02:20:39;;;;;;;7.20;1.40;;;6.50;99.90;;;;;;4914368;29;37726;-76
2023/04/13 02:23:07;;;;;;;15.00;1.37;;;6.50;99.90;;;;;;4909010;29;36957;-75
2023/04/13 02:25:34;;;;;;;7.63;0.90;;;6.50;99.90;;;;;;4916201;29;40229;-76
2023/04/13 02:28:00;;;;;;;8.63;1.00;;;6.50;99.90;;;;;;4885661;29;37983;-76
2023/04/13 02:30:29;;;;;;;15.03;2.37;;;6.50;99.90;;;;;;4901599;29;37178;-76
2023/04/13 02:32:55;;;;;;;5.03;1.10;;;6.50;99.90;;;;;;4908275;29;37026;-76
2023/04/13 02:35:21;;;;;;;8.63;1.50;;;6.50;99.90;;;;;;4913902;29;38876;-76
2023/04/13 02:37:48;;;;;;;9.43;1.33;;;6.40;99.90;;;;;;4912578;29;38109;-76
2023/04/13 02:40:14;;;;;;;15.83;2.07;;;6.50;99.90;;;;;;4917448;29;39522;-76
2023/04/13 02:42:41;;;;;;;11.07;1.40;;;6.50;99.90;;;;;;4900115;29;36451;-76
2023/04/13 02:45:11;;;;;;;10.90;1.60;;;6.60;99.90;;;;;;4909704;29;37870;-76
2023/04/13 02:47:39;;;;;;;9.63;1.60;;;6.60;99.90;;;;;;4897187;29;38914;-76
2023/04/13 02:50:05;;;;;;;8.40;1.37;;;6.70;99.90;;;;;;4914723;29;38689;-76
2023/04/13 02:52:31;;;;;;;11.83;1.40;;;6.70;99.90;;;;;;4916505;29;49352;-76
2023/04/13 02:54:57;;;;;;;9.43;1.30;;;6.70;99.90;;;;;;4917565;29;38947;-76
2023/04/13 02:57:24;;;;;;;10.47;1.57;;;6.80;99.90;;;;;;4922882;29;38547;-76
2023/04/13 02:59:51;;;;;;;12.10;1.73;;;6.80;99.90;;;;;;4909924;29;39266;-76
2023/04/13 03:02:17;;;;;;;11.10;2.67;;;6.80;99.90;;;;;;4910890;28;37291;-76
2023/04/13 03:04:44;;;;;;;8.13;1.57;;;6.90;99.90;;;;;;4918980;29;40266;-76
2023/04/13 03:07:13;;;;;;;10.13;1.97;;;6.80;99.90;;;;;;4915854;28;38936;-76
2023/04/13 03:09:40;;;;;;;12.67;2.20;;;6.80;99.90;;;;;;4919403;29;38784;-76
2023/04/13 03:12:09;;;;;;;14.47;2.40;;;6.80;99.90;;;;;;4923565;28;36029;-77
2023/04/13 03:14:35;;;;;;;8.10;1.90;;;6.80;99.90;;;;;;4923578;29;36716;-76
2023/04/13 03:17:03;;;;;;;13.67;1.87;;;6.90;99.90;;;;;;4932267;28;38920;-77
2023/04/13 03:19:30;;;;;;;13.67;2.40;;;6.80;99.90;;;;;;4933888;28;38545;-76
2023/04/13 03:21:56;;;;;;;13.37;2.53;;;6.90;99.90;;;;;;4939441;28;37785;-76
2023/04/13 03:24:26;;;;;;;16.33;2.90;;;6.90;99.90;;;;;;4912493;29;37811;-76
2023/04/13 03:26:55;;;;;;;11.83;1.97;;;7.00;99.90;;;;;;4911105;28;37977;-77
2023/04/13 03:29:23;;;;;;;11.70;2.70;;;7.00;99.90;;;;;;4911368;29;37606;-77
2023/04/13 03:31:50;;;;;;;14.63;2.50;;;7.00;99.90;;;;;;4917074;29;39095;-77
2023/04/13 03:34:17;;;;;;;12.00;1.93;;;7.00;99.90;;;;;;4911911;28;37950;-76
2023/04/13 03:36:43;;;;;;;14.67;2.67;;;7.00;99.90;;;;;;4928962;28;38507;-76
2023/04/13 03:39:09;;;;;;;14.00;2.43;;;7.00;99.90;;;;;;4933358;28;38284;-76
2023/04/13 03:41:36;;;;;;;10.90;2.13;;;7.00;99.90;;;;;;4933893;28;36960;-76
2023/04/13 03:44:03;;;;;;;6.27;1.63;;;7.00;99.90;;;;;;4918557;29;38844;-76
2023/04/13 03:46:31;;;;;;;10.63;1.70;;;7.10;99.90;;;;;;4912676;29;38705;-76
2023/04/13 03:48:59;;;;;;;10.07;1.50;;;7.10;99.90;;;;;;4912684;28;37752;-77
2023/04/13 03:51:26;;;;;;;9.77;1.23;;;7.10;99.90;;;;;;4924545;28;36107;-76
2023/04/13 03:53:52;;;;;;;12.33;1.57;;;7.20;99.90;;;;;;4924264;28;39906;-76
2023/04/13 03:56:20;;;;;;;4.50;1.07;;;7.20;99.90;;;;;;4914471;28;38088;-76
2023/04/13 03:58:46;;;;;;;11.30;1.30;;;7.30;99.90;;;;;;4915095;29;38607;-75
2023/04/13 04:01:12;;;;;;;6.27;1.30;;;7.30;99.90;;;;;;4913719;29;36000;-75
2023/04/13 04:03:39;;;;;;;9.27;1.40;;;7.30;99.90;;;;;;4898772;29;38134;-75
2023/04/13 04:06:06;;;;;;;11.50;1.73;;;7.30;99.90;;;;;;4893015;29;38548;-75
2023/04/13 04:08:32;;;;;;;4.47;0.90;;;7.30;99.90;;;;;;4892388;29;37623;-75
2023/04/13 04:10:59;;;;;;;6.10;1.10;;;7.30;99.90;;;;;;4898613;29;36083;-75
2023/04/13 04:13:25;;;;;;;5.47;1.20;;;7.20;99.90;;;;;;4922676;29;38539;-75
2023/04/13 04:15:51;;;;;;;9.23;1.90;;;7.20;99.90;;;;;;4911961;29;39017;-75
2023/04/13 04:18:17;;;;;;;11.47;1.50;;;7.20;99.90;;;;;;4900069;29;38637;-76
2023/04/13 04:20:51;;;;;;;12.40;1.23;;;7.30;99.90;;;;;;4903062;29;36188;-75
2023/04/13 04:23:17;;;;;;;10.03;1.30;;;7.30;99.90;;;;;;4912906;29;39644;-75
2023/04/13 04:25:44;;;;;;;5.03;1.57;;;7.20;99.90;;;;;;4894568;29;37682;-75
2023/04/13 04:28:16;;;;;;;5.47;1.10;;;7.20;99.90;;;;;;4907223;29;38118;-75
2023/04/13 04:30:44;;;;;;;6.15;1.15;;;7.40;99.90;;;;;;4924984;29;37301;-75
2023/04/13 04:33:11;;;;;;;9.07;1.10;;;7.40;99.90;;;;;;4915219;29;38592;-75
2023/04/13 04:35:50;;;;;;;6.83;1.00;;;7.40;99.90;;;;;;4908229;29;37543;-75
2023/04/13 04:38:17;;;;;;;7.47;1.47;;;7.40;99.90;;;;;;4923389;29;38530;-76
2023/04/13 04:40:44;;;;;;;12.47;1.77;;;7.40;99.90;;;;;;4913132;29;37054;-76
2023/04/13 04:43:13;;;;;;;5.40;0.90;;;7.30;99.90;;;;;;4901147;29;38872;-76
2023/04/13 04:45:42;;;;;;;6.87;1.10;;;7.10;99.90;;;;;;4908609;29;39515;-75
2023/04/13 04:48:14;;;;;;;10.30;1.00;;;7.00;99.90;;;;;;4900387;29;38305;-75
2023/04/13 04:50:43;;;;;;;4.93;1.52;;;6.90;99.90;;;;;;4926653;29;37043;-75
2023/04/13 04:53:10;;;;;;;15.03;2.13;;;6.90;99.90;;;;;;4906469;29;38971;-76
2023/04/13 04:55:37;;;;;;;3.90;0.77;;;7.00;99.90;;;;;;4898300;29;39432;-76
2023/04/13 04:58:04;;;;;;;3.23;1.00;;;7.00;99.90;;;;;;4922549;29;39397;-76
2023/04/13 05:00:30;;;;;;;5.83;1.10;;;7.00;99.90;;;;;;4897755;29;36216;-76
2023/04/13 05:02:56;;;;;;;6.50;0.70;;;7.00;99.90;;;;;;4906216;29;39580;-75
2023/04/13 05:05:27;;;;;;;4.30;0.93;;;7.00;99.90;;;;;;4913820;29;38897;-76
2023/04/13 05:07:53;;;;;;;2.83;1.00;;;7.00;99.90;;;;;;4891089;29;37534;-76
2023/04/13 05:10:19;;;;;;;5.00;1.03;;;7.00;99.90;;;;;;4896139;29;35716;-76
2023/04/13 05:12:46;;;;;;;7.60;1.20;;;7.00;99.90;;;;;;4900512;29;37592;-75
2023/04/13 05:15:12;;;;;;;4.40;0.90;;;6.90;99.90;;;;;;4912754;29;38540;-76
2023/04/13 05:17:40;;;;;;;6.63;0.97;;;7.00;99.90;;;;;;4904925;29;39409;-76
2023/04/13 05:20:07;;;;;;;6.70;1.53;;;7.00;99.90;;;;;;4898862;29;38393;-76
2023/04/13 05:22:33;;;;;;;12.83;1.83;;;7.10;99.90;;;;;;4891793;29;37595;-76
2023/04/13 05:25:01;;;;;;;10.40;1.20;;;7.10;99.90;;;;;;4915286;29;39772;-76
2023/04/13 05:27:28;;;;;;;9.63;1.50;;;7.10;99.90;;;;;;4905402;29;38885;-75
2023/04/13 05:29:56;;;;;;;11.00;1.70;;;7.20;99.90;;;;;;4888338;29;36530;-76
2023/04/13 05:32:22;;;;;;;11.57;2.33;;;7.30;99.90;;;;;;4915283;29;38498;-76
2023/04/13 05:34:49;;;;;;;16.70;1.80;;;7.30;99.90;;;;;;4912171;29;38890;-75
2023/04/13 05:37:16;;;;;;;12.03;2.17;;;7.30;99.90;;;;;;4895926;29;38198;-75
2023/04/13 05:39:42;;;;;;;12.27;2.30;;;7.40;99.90;;;;;;4923004;29;37680;-74
2023/04/13 05:42:08;;;;;;;20.43;3.43;;;7.40;99.90;;;;;;4916756;29;38767;-75
2023/04/13 05:44:34;;;;;;;13.30;2.63;;;7.40;99.90;;;;;;4906699;29;37560;-75
2023/04/13 05:47:01;;;;;;;17.10;2.40;;;7.40;99.90;;;;;;4902172;29;37418;-75
2023/04/13 05:49:27;;;;;;;12.20;2.13;;;7.50;99.90;;;;;;4913381;29;36882;-75
2023/04/13 05:51:54;;;;;;;13.00;3.03;;;7.50;99.90;;;;;;4893504;29;39543;-74
2023/04/13 05:54:20;;;;;;;16.47;2.60;;;7.60;99.90;;;;;;4892983;29;38525;-73
2023/04/13 05:56:46;;;;;;;19.93;2.07;;;7.60;99.90;;;;;;4886547;29;35938;-73
2023/04/13 05:59:13;;;;;;;15.47;2.83;;;7.60;99.90;;;;;;4901834;29;38151;-75
2023/04/13 06:01:39;;;;;;;14.53;2.47;;;7.60;99.90;;;;;;4882480;29;37931;-73
2023/04/13 06:04:05;;;;;;;16.87;2.60;;;7.60;99.90;;;;;;4894423;28;38868;-75
2023/04/13 06:06:32;;;;;;;14.83;2.73;;;7.60;99.90;;;;;;4907303;29;37726;-75
2023/04/13 06:09:01;;;;;;;14.63;2.50;;;7.60;99.90;;;;;;4905787;29;35785;-75
2023/04/13 06:11:27;;;;;;;15.10;2.83;;;7.60;99.90;;;;;;4905809;28;46884;-74
2023/04/13 06:13:53;;;;;;;10.57;2.73;;;7.60;99.90;;;;;;4904311;28;39756;-76
2023/04/13 06:16:20;;;;;;;16.50;3.10;;;7.60;99.90;;;;;;4907560;28;39137;-75
2023/04/13 06:18:46;;;;;;;16.87;3.20;;;7.70;99.90;;;;;;4906148;29;36270;-76
2023/04/13 06:21:12;;;;;;;18.47;3.13;;;7.80;99.90;;;;;;4903480;28;37767;-76
2023/04/13 06:23:38;;;;;;;19.47;3.67;;;7.90;99.90;;;;;;4903540;28;39859;-75
2023/04/13 06:26:05;;;;;;;15.10;2.60;;;7.90;99.90;;;;;;4900354;28;38341;-75
2023/04/13 06:28:32;;;;;;;18.50;3.00;;;8.00;99.90;;;;;;4906792;28;36580;-75
2023/04/13 06:30:58;;;;;;;17.77;3.00;;;8.00;99.90;;;;;;4910721;29;37804;-75
2023/04/13 06:33:25;;;;;;;16.53;2.73;;;8.10;99.90;;;;;;4907153;28;38762;-76
2023/04/13 06:35:51;;;;;;;19.73;3.43;;;8.30;99.90;;;;;;4920287;28;38340;-76
2023/04/13 06:38:17;;;;;;;18.03;3.87;;;8.40;99.90;;;;;;4904983;28;36830;-75
2023/04/13 06:40:43;;;;;;;23.07;3.17;;;8.50;99.90;;;;;;4905460;29;37280;-77
2023/04/13 06:43:10;;;;;;;14.63;2.80;;;8.50;99.90;;;;;;4906184;29;37468;-73
2023/04/13 06:45:36;;;;;;;14.43;3.47;;;8.60;99.90;;;;;;4904427;29;37361;-75
2023/04/13 06:48:02;;;;;;;13.10;2.50;;;8.60;99.90;;;;;;4905656;28;37627;-75
2023/04/13 06:50:28;;;;;;;20.43;3.40;;;8.60;99.90;;;;;;4917167;28;38164;-76
2023/04/13 06:52:54;;;;;;;26.73;3.23;;;8.60;99.90;;;;;;4912570;29;40785;-75
2023/04/13 06:55:21;;;;;;;19.83;2.87;;;8.60;99.90;;;;;;4911249;28;36289;-75
2023/04/13 06:57:47;;;;;;;14.37;2.53;;;8.70;99.90;;;;;;4914121;28;37281;-76
2023/04/13 07:00:13;;;;;;;15.47;2.57;;;8.70;99.90;;;;;;4910741;29;38967;-77
2023/04/13 07:02:43;;;;;;;16.07;2.93;;;8.70;99.90;;;;;;4910585;29;37355;-74
2023/04/13 07:05:10;;;;;;;18.10;2.77;;;8.70;99.90;;;;;;4909167;28;39234;-73
2023/04/13 07:07:37;;;;;;;17.40;3.57;;;8.70;99.90;;;;;;4903859;29;36572;-73
2023/04/13 07:10:03;;;;;;;14.03;2.90;;;8.80;99.90;;;;;;4914436;29;39105;-73
2023/04/13 07:12:32;;;;;;;21.33;3.37;;;8.80;99.90;;;;;;4916164;28;39388;-73
2023/04/13 07:14:58;;;;;;;17.30;3.10;;;8.80;99.90;;;;;;4916106;28;38121;-74
2023/04/13 07:17:25;;;;;;;18.57;3.00;;;8.90;99.90;;;;;;4909793;29;36935;-74
2023/04/13 07:19:51;;;;;;;17.90;3.10;;;8.90;99.90;;;;;;4909570;29;37588;-74
2023/04/13 07:22:17;;;;;;;17.60;3.20;;;8.90;99.90;;;;;;4909810;29;37538;-74
2023/04/13 07:24:43;;;;;;;13.57;2.83;;;8.90;99.90;;;;;;4906729;29;37273;-75
2023/04/13 07:27:09;;;;;;;19.50;3.50;;;8.90;99.90;;;;;;4905177;28;37893;-75
2023/04/13 07:29:35;;;;;;;18.10;3.10;;;9.00;99.90;;;;;;4907884;29;38306;-73
2023/04/13 07:32:04;;;;;;;19.10;2.50;;;9.00;99.90;;;;;;4908683;29;41895;-74
2023/04/13 07:34:30;;;;;;;23.57;3.67;;;9.00;99.90;;;;;;4902330;29;38380;-73
2023/04/13 07:36:57;;;;;;;19.80;2.63;;;9.10;99.90;;;;;;4910507;28;36926;-73
2023/04/13 07:39:23;;;;;;;16.43;3.10;;;9.20;99.90;;;;;;4902436;28;39529;-76
2023/04/13 07:41:50;;;;;;;15.90;2.67;;;9.30;99.90;;;;;;4903278;29;39506;-76
2023/04/13 07:44:16;;;;;;;15.03;2.30;;;9.40;99.90;;;;;;4908245;28;37589;-76
2023/04/13 07:46:42;;;;;;;20.50;2.87;;;9.50;99.90;;;;;;4905407;29;37452;-76
2023/04/13 07:49:08;;;;;;;15.63;2.83;;;9.40;99.90;;;;;;4907465;28;37765;-76
2023/04/13 07:51:34;;;;;;;22.17;3.03;;;9.30;99.90;;;;;;4895703;28;38675;-75
2023/04/13 07:54:01;;;;;;;19.57;2.57;;;9.30;99.90;;;;;;4898025;29;37304;-75
2023/04/13 07:56:29;;;;;;;25.40;3.43;;;9.40;99.90;;;;;;4899142;29;47284;-73
2023/04/13 07:58:56;;;;;;;16.53;2.97;;;9.50;99.90;;;;;;4899889;29;39158;-73
2023/04/13 08:01:22;;;;;;;19.57;3.20;;;9.50;99.90;;;;;;4911024;28;38893;-72
2023/04/13 08:03:48;;;;;;;20.87;2.67;;;9.40;99.90;;;;;;4909848;28;37073;-73
2023/04/13 08:06:14;;;;;;;16.50;3.07;;;9.30;99.90;;;;;;4909611;29;37263;-73
2023/04/13 08:08:43;;;;;;;15.73;2.60;;;9.30;99.90;;;;;;4906058;28;38640;-73
2023/04/13 08:11:10;;;;;;;17.93;2.57;;;9.30;99.90;;;;;;4899242;29;38494;-73
2023/04/13 08:13:36;;;;;;;14.90;2.30;;;9.40;99.90;;;;;;4904141;29;38290;-74
2023/04/13 08:16:04;;;;;;;18.33;3.33;;;9.50;99.90;;;;;;4904392;29;37672;-74
2023/04/13 08:18:31;;;;;;;15.45;3.90;;;9.70;99.90;;;;;;4903972;29;39787;-75
2023/04/13 08:20:57;;;;;;;17.65;2.88;;;9.90;99.90;;;;;;4903793;29;38578;-75
2023/04/13 08:23:24;;;;;;;12.03;2.23;;;10.10;99.90;;;;;;4905491;29;39487;-75
2023/04/13 08:25:50;;;;;;;10.18;2.50;;;10.10;99.90;;;;;;4882210;29;37621;-74
2023/04/13 08:28:16;;;;;;;16.98;2.30;;;10.10;99.90;;;;;;4881112;29;36376;-74
2023/04/13 08:30:42;;;;;;;17.63;2.73;;;10.00;99.90;;;;;;4882019;29;38042;-74
2023/04/13 08:33:09;;;;;;;12.27;2.97;;;9.90;99.90;;;;;;4896484;29;37165;-74
2023/04/13 08:35:38;;;;;;;14.73;2.10;;;9.80;99.90;;;;;;4901111;29;39271;-72
2023/04/13 08:38:07;;;;;;;15.17;2.30;;;9.70;99.90;;;;;;4891071;29;40945;-73
2023/04/13 08:40:39;;;;;;;18.90;3.00;;;9.70;99.90;;;;;;4907988;29;39796;-73
2023/04/13 08:43:06;;;;;;;15.20;2.60;;;9.80;99.90;;;;;;4885430;29;40067;-74
2023/04/13 08:45:33;;;;;;;16.20;2.92;;;10.10;99.90;;;;;;4911432;29;37966;-77
2023/04/13 08:48:00;;;;;;;20.98;3.45;;;10.20;99.90;;;;;;4891750;29;38934;-77
2023/04/13 08:50:27;;;;;;;16.00;2.42;;;10.40;99.90;;;;;;4911617;29;47948;-77
2023/04/13 08:52:54;;;;;;;15.75;3.08;;;10.60;99.90;;;;;;4907674;29;39223;-77
2023/04/13 08:55:21;;;;;;;18.00;2.38;;;10.70;99.90;;;;;;4889809;29;35747;-79
2023/04/13 08:57:48;;;;;;;20.90;3.53;;;10.80;99.90;;;;;;4883573;29;39585;-78
2023/04/13 09:00:17;;;;;;;15.65;2.22;;;10.90;99.90;;;;;;4906511;29;37616;-78
2023/04/13 09:02:47;;;;;;;13.65;2.60;;;11.00;99.90;;;;;;4889797;29;37321;-76
2023/04/13 09:05:19;;;;;;;17.75;2.47;;;11.00;99.90;;;;;;4903582;28;36920;-75
2023/04/13 09:07:52;;;;;;;15.63;2.70;;;10.70;99.90;;;;;;4906087;28;38541;-77
2023/04/13 09:10:22;;;;;;;17.73;2.47;;;10.70;99.90;;;;;;4905455;28;37786;-75
2023/04/13 09:12:51;;;;;;;15.07;2.58;;;10.80;99.90;;;;;;4909236;28;38845;-78
2023/04/13 09:15:18;;;;;;;13.48;2.67;;;10.90;99.90;;;;;;4907886;28;38476;-78
2023/04/13 09:17:44;;;;;;;13.55;2.17;;;10.90;99.90;;;;;;4899441;28;38284;-77
2023/04/13 09:20:12;;;;;;;13.80;3.38;;;11.30;99.90;;;;;;4909558;28;40353;-77
2023/04/13 09:22:38;;;;;;;13.02;2.70;;;11.40;99.90;;;;;;4900769;29;37341;-78
2023/04/13 09:25:06;;;;;;;9.98;1.85;;;11.30;99.90;;;;;;4905233;29;36898;-77
2023/04/13 09:27:34;;;;;;;15.23;2.63;;;11.20;99.90;;;;;;4903272;29;37298;-77
2023/04/13 09:30:01;;;;;;;15.82;2.78;;;11.30;99.90;;;;;;4905551;29;37819;-76
2023/04/13 09:32:27;;;;;;;16.42;2.75;;;11.40;99.90;;;;;;4901751;28;38478;-76
2023/04/13 09:35:04;;;;;;;22.17;2.55;;;11.30;99.90;;;;;;4905316;29;35752;-77
2023/04/13 09:37:31;;;;;;;11.57;2.15;;;11.10;99.90;;;;;;4905664;28;48450;-76
2023/04/13 09:40:12;;;;;;;9.98;1.90;;;11.00;99.90;;;;;;4911706;28;38610;-76
2023/04/13 09:42:40;;;;;;;10.52;2.13;;;11.00;99.90;;;;;;4900436;29;48721;-77
2023/04/13 09:45:07;;;;;;;9.35;1.83;;;11.00;99.90;;;;;;4907961;28;37893;-77
2023/04/13 09:47:39;;;;;;;13.93;2.78;;;11.00;99.90;;;;;;4908949;29;39129;-77
2023/04/13 09:50:20;;;;;;;17.60;2.40;;;10.80;99.90;;;;;;4907192;28;37947;-76
2023/04/13 09:52:46;;;;;;;16.15;2.80;;;10.80;99.90;;;;;;4900067;28;37612;-77
2023/04/13 09:55:16;;;;;;;18.02;2.30;;;10.90;99.90;;;;;;4911468;28;36393;-77
2023/04/13 09:57:43;;;;;;;13.77;2.17;;;11.00;99.90;;;;;;4904422;29;39402;-77
2023/04/13 10:00:43;;;;;;;11.13;2.50;;;11.00;99.90;;;;;;4909761;28;39406;-78
2023/04/13 10:03:02;;;;;;;15.52;2.58;;;11.10;99.90;;;;;;4904061;28;48542;-77
2023/04/13 10:05:31;;;;;;;15.35;2.50;;;11.40;99.90;;;;;;4892297;29;37638;-77
2023/04/13 10:07:57;;;;;;;16.48;2.50;;;11.80;99.90;;;;;;4911295;29;41309;-78
2023/04/13 10:10:25;;;;;;;11.18;1.92;;;12.00;99.90;;;;;;4884342;29;37961;-78
2023/04/13 10:12:55;;;;;;;12.02;2.22;;;12.20;99.90;;;;;;4888610;29;37599;-78
2023/04/13 10:15:44;;;;;;;16.02;3.38;;;12.20;99.90;;;;;;4886961;29;37388;-77
2023/04/13 10:18:37;;;;;;;14.65;2.80;;;11.90;99.90;;;;;;4866437;29;37896;-77
2023/04/13 10:21:04;;;;;;;13.27;2.55;;;11.50;99.90;;;;;;4906509;29;39153;-78
2023/04/13 10:23:32;;;;;;;14.25;2.50;;;11.40;99.90;;;;;;4909280;29;38290;-77
2023/04/13 10:26:02;;;;;;;9.00;2.15;;;11.50;99.90;;;;;;4889125;29;36639;-77
2023/04/13 10:28:29;;;;;;;11.07;2.10;;;11.70;99.90;;;;;;4892356;29;47588;-77
2023/04/13 10:30:55;;;;;;;15.73;3.38;;;11.90;99.90;;;;;;4908867;29;39271;-77
2023/04/13 10:33:21;;;;;;;15.25;2.80;;;11.80;99.90;;;;;;4887711;29;38413;-78
2023/04/13 10:35:58;;;;;;;12.00;2.95;;;11.90;99.90;;;;;;4891427;29;37114;-78
2023/04/13 10:38:26;;;;;;;14.73;2.83;;;11.80;99.90;;;;;;4911679;29;37767;-77
2023/04/13 10:40:52;;;;;;;16.42;2.50;;;11.60;99.90;;;;;;4907067;29;38763;-77
2023/04/13 10:43:31;;;;;;;14.52;2.90;;;11.20;99.90;;;;;;4888148;29;37475;-76
2023/04/13 10:46:05;;;;;;;20.58;2.90;;;11.20;99.90;;;;;;4888977;29;36939;-77
2023/04/13 10:48:31;;;;;;;14.02;2.53;;;11.10;99.90;;;;;;4882962;29;46460;-77
2023/04/13 10:50:59;;;;;;;11.98;2.38;;;11.10;99.90;;;;;;4905905;29;38545;-78
2023/04/13 10:53:27;;;;;;;16.48;2.60;;;11.20;99.90;;;;;;4889331;29;37420;-77
2023/04/13 10:55:54;;;;;;;13.57;2.50;;;11.10;99.90;;;;;;4892355;29;35907;-78
2023/04/13 10:58:21;;;;;;;12.80;2.58;;;11.30;99.90;;;;;;4897888;29;38669;-80
2023/04/13 11:00:50;;;;;;;16.70;2.50;;;11.30;99.90;;;;;;4896508;29;38954;-78
2023/04/13 11:03:19;;;;;;;14.65;2.70;;;11.50;99.90;;;;;;4884689;28;37495;-78
2023/04/13 11:05:56;;;;;;;12.90;2.83;;;11.40;99.90;;;;;;4899921;29;36883;-79
2023/04/13 11:08:23;;;;;;;13.90;2.70;;;11.70;99.90;;;;;;4908087;29;38758;-76
2023/04/13 11:10:51;;;;;;;14.45;2.20;;;12.20;99.90;;;;;;4898400;29;40422;-77
2023/04/13 11:13:17;;;;;;;16.25;2.88;;;12.50;99.90;;;;;;4899443;28;38271;-78
2023/04/13 11:15:44;;;;;;;11.00;1.98;;;12.40;99.90;;;;;;4903517;28;36369;-77
2023/04/13 11:18:10;;;;;;;17.50;2.85;;;12.20;99.90;;;;;;4894122;28;38698;-81
2023/04/13 11:20:38;;;;;;;33.83;5.45;;;11.90;99.90;;;;;;4895479;29;38409;-78
2023/04/13 11:23:06;;;;;;;11.65;2.13;;;11.70;99.90;;;;;;4902072;28;38519;-75
2023/04/13 11:25:33;;;;;;;9.82;2.22;;;11.60;99.90;;;;;;4896419;29;35754;-76
2023/04/13 11:28:02;;;;;;;12.65;2.55;;;11.60;99.90;;;;;;4902409;28;38561;-75
2023/04/13 11:30:29;;;;;;;16.33;2.70;;;11.60;99.90;;;;;;4909409;28;47237;-75
2023/04/13 11:32:58;;;;;;;13.23;2.15;;;11.60;99.90;;;;;;4909777;29;37409;-75
2023/04/13 11:35:25;;;;;;;12.70;2.35;;;12.20;99.90;;;;;;4907995;29;37972;-76
2023/04/13 11:37:54;;;;;;;15.82;2.72;;;12.50;99.90;;;;;;4903543;29;39576;-75
2023/04/13 11:40:26;;;;;;;12.30;1.90;;;12.40;99.90;;;;;;4907870;28;38943;-75
2023/04/13 11:42:57;;;;;;;10.38;1.95;;;12.60;99.90;;;;;;4907805;29;37280;-75
2023/04/13 11:45:25;;;;;;;10.27;2.00;;;13.00;99.90;;;;;;4904057;28;36904;-76
2023/04/13 11:47:53;;;;;;;10.02;1.98;;;13.00;99.90;;;;;;4915064;28;39108;-75
2023/04/13 11:50:21;;;;;;;16.15;2.65;;;13.00;99.90;;;;;;4907778;28;39109;-75
2023/04/13 11:52:50;;;;;;;13.05;2.45;;;12.70;99.90;;;;;;4908866;29;37522;-74
2023/04/13 11:55:17;;;;;;;13.88;2.58;;;12.50;99.90;;;;;;4908335;28;35709;-75
2023/04/13 11:57:44;;;;;;;7.53;1.98;;;12.50;99.90;;;;;;4898631;28;38550;-75
2023/04/13 12:00:22;;;;;;;11.45;2.35;;;13.10;99.90;;;;;;4901774;29;39777;-76
2023/04/13 12:02:53;;;;;;;10.50;2.22;;;13.20;99.90;;;;;;4908424;28;48798;-76
2023/04/13 12:05:24;;;;;;;13.88;2.95;;;13.60;99.90;;;;;;4921222;28;37059;-75
2023/04/13 12:07:55;;;;;;;10.68;2.03;;;13.50;99.90;;;;;;4900436;28;38928;-75
2023/04/13 12:10:25;;;;;;;9.23;2.00;;;13.00;99.90;;;;;;4900477;28;36340;-75
2023/04/13 12:13:05;;;;;;;14.50;2.00;;;12.60;99.90;;;;;;4911142;28;37221;-76
2023/04/13 12:15:34;;;;;;;10.48;1.80;;;12.30;99.90;;;;;;4920203;28;48446;-78
2023/04/13 12:18:01;;;;;;;16.85;3.00;;;12.90;99.90;;;;;;4911498;28;38694;-78
2023/04/13 12:20:38;;;;;;;11.88;2.03;;;13.40;99.90;;;;;;4912576;28;47218;-77
2023/04/13 12:23:22;;;;;;;12.98;2.33;;;13.40;99.90;;;;;;4905376;28;38571;-77
2023/04/13 12:26:04;;;;;;;12.20;2.10;;;13.10;99.90;;;;;;4900158;28;37243;-77
2023/04/13 12:28:36;;;;;;;18.65;2.10;;;12.70;99.90;;;;;;4933305;28;48272;-78
2023/04/13 12:31:04;;;;;;;14.80;2.22;;;12.50;99.90;;;;;;4901638;28;37048;-77
2023/04/13 12:33:30;;;;;;;13.02;2.17;;;12.90;99.90;;;;;;4904749;28;37043;-78
2023/04/13 12:35:56;;;;;;;7.60;1.80;;;13.10;99.90;;;;;;4930744;28;37860;-78
2023/04/13 12:38:24;;;;;;;10.30;2.00;;;13.60;99.90;;;;;;4929546;28;38722;-77
2023/04/13 12:40:55;;;;;;;10.73;1.98;;;13.70;99.90;;;;;;4921984;28;40085;-77
2023/04/13 12:43:21;;;;;;;13.15;2.35;;;13.40;99.90;;;;;;4930696;28;41312;-76
2023/04/13 12:45:48;;;;;;;17.65;2.60;;;12.70;99.90;;;;;;4910068;28;36571;-77
2023/04/13 12:48:14;;;;;;;12.82;2.10;;;12.90;99.90;;;;;;4907784;28;38575;-77
2023/04/13 12:50:40;;;;;;;12.13;2.20;;;13.10;99.90;;;;;;4914909;28;38741;-77
2023/04/13 12:53:06;;;;;;;11.32;1.98;;;12.90;99.90;;;;;;4910317;28;37417;-77
2023/04/13 12:55:32;;;;;;;12.80;2.65;;;12.70;99.90;;;;;;4922117;28;37168;-79